Terminal Aerodrome Forecast
Issued by NWS Buffalo, NY

Home | Current Version | Previous Version | Text Only | Print | Product List | Glossary On
Versions: 1 2 3 4 5 6 7 8 9 10 11 12 13 14 15 16 17 18 19 20 21 22 23
044
FTUS41 KBUF 061744
TAFROC
TAF
KROC 061744Z 0618/0718 05014G20KT P6SM FEW040 BKN200
     FM061900 03014G20KT P6SM SCT040 BKN070
     FM062100 03005KT P6SM VCSH BKN040
     FM070300 03003KT 6SM -SHRA BKN025
     FM070700 17004KT P6SM BKN060
     FM071100 17005KT P6SM SCT010=

USA.gov is the U.S. government's official web portal to all federal, state and local government web resources and services.